createdAt,value
2018-06-30T00:02:32.733Z,100864.00
2018-06-30T00:07:36.534Z,100869.00
2018-06-30T00:12:40.585Z,100869.00
2018-06-30T00:17:44.378Z,100871.00
2018-06-30T00:22:48.188Z,100869.00
2018-06-30T00:27:55.463Z,100867.00
2018-06-30T00:32:59.278Z,100860.00
2018-06-30T00:38:03.077Z,100866.00
2018-06-30T00:43:06.866Z,100864.00
2018-06-30T00:48:10.661Z,100862.00
2018-06-30T00:53:14.485Z,100868.00
2018-06-30T00:58:18.518Z,100867.00
2018-06-30T01:03:22.320Z,100865.00
2018-06-30T01:08:26.111Z,100868.00
2018-06-30T01:13:30.129Z,100867.00
2018-06-30T01:18:33.943Z,100864.00
2018-06-30T01:23:37.761Z,100866.00
2018-06-30T01:28:41.557Z,100864.00
2018-06-30T01:33:45.366Z,100863.00
2018-06-30T01:38:49.168Z,100869.00
2018-06-30T01:43:53.818Z,100873.00
2018-06-30T01:48:57.614Z,100871.00
2018-06-30T01:54:01.401Z,100865.00
2018-06-30T01:59:05.461Z,100870.00
2018-06-30T02:04:09.273Z,100874.00
2018-06-30T02:09:13.073Z,100871.00
2018-06-30T02:14:16.866Z,100877.00
2018-06-30T02:19:20.659Z,100873.00
2018-06-30T02:24:24.705Z,100871.00
2018-06-30T02:29:28.497Z,100862.00
2018-06-30T02:34:32.309Z,100870.00
2018-06-30T02:39:36.102Z,100868.00
2018-06-30T02:44:39.900Z,100867.00
2018-06-30T02:49:43.697Z,100866.00
2018-06-30T02:54:47.715Z,100863.00
2018-06-30T02:59:51.516Z,100870.00
2018-06-30T03:04:55.369Z,100867.00
2018-06-30T03:09:59.181Z,100868.00
2018-06-30T03:15:03.032Z,100866.00
2018-06-30T03:20:06.949Z,100859.00
2018-06-30T03:25:10.777Z,100856.00
2018-06-30T03:30:14.613Z,100864.00
2018-06-30T03:35:18.451Z,100858.00
2018-06-30T03:40:25.129Z,100865.00
2018-06-30T03:45:29.198Z,100872.00
2018-06-30T03:50:33.248Z,100873.00
2018-06-30T03:55:37.268Z,100872.00
2018-06-30T04:00:41.075Z,100873.00
2018-06-30T04:05:44.874Z,100872.00
2018-06-30T04:10:48.663Z,100874.00
2018-06-30T04:15:52.476Z,100869.00
2018-06-30T04:20:56.261Z,100873.00
2018-06-30T04:26:00.057Z,100878.00
2018-06-30T04:31:03.848Z,100882.00
2018-06-30T04:36:07.641Z,100876.00
2018-06-30T04:41:11.437Z,100881.00
2018-06-30T04:46:15.713Z,100877.00
2018-06-30T04:51:19.929Z,100882.00
2018-06-30T04:56:23.939Z,100887.00
2018-06-30T05:01:27.970Z,100888.00
2018-06-30T05:06:32.013Z,100892.00
2018-06-30T05:11:36.084Z,100890.00
2018-06-30T05:16:39.873Z,100886.00
2018-06-30T05:21:43.906Z,100890.00
2018-06-30T05:26:47.749Z,100889.00
2018-06-30T05:31:51.516Z,100891.00
2018-06-30T05:36:55.550Z,100889.00
2018-06-30T05:41:59.359Z,100888.00
2018-06-30T05:47:03.153Z,100890.00
2018-06-30T05:52:06.941Z,100893.00
2018-06-30T05:57:10.969Z,100893.00
2018-06-30T06:02:14.773Z,100891.00
2018-06-30T06:07:18.605Z,100884.00
2018-06-30T06:12:22.682Z,100887.00
2018-06-30T06:17:26.437Z,100890.00
2018-06-30T06:22:30.253Z,100883.00
2018-06-30T06:27:34.086Z,100880.00
2018-06-30T06:32:38.269Z,100883.00
2018-06-30T06:37:42.012Z,100878.00
2018-06-30T06:42:45.797Z,100881.00
2018-06-30T06:47:49.604Z,100885.00
2018-06-30T06:52:53.429Z,100887.00
2018-06-30T06:57:57.501Z,100883.00
2018-06-30T07:03:01.776Z,100877.00
2018-06-30T07:08:05.573Z,100877.00
2018-06-30T07:13:09.492Z,100872.00
2018-06-30T07:18:13.283Z,100869.00
2018-06-30T07:23:17.424Z,100872.00
2018-06-30T07:28:21.244Z,100872.00
2018-06-30T07:33:25.037Z,100870.00
2018-06-30T07:38:29.127Z,100873.00
2018-06-30T07:43:32.918Z,100870.00
2018-06-30T07:48:36.977Z,100866.00
2018-06-30T07:53:40.759Z,100868.00
2018-06-30T07:58:44.574Z,100868.00
2018-06-30T08:03:48.407Z,100869.00
2018-06-30T08:08:52.296Z,100863.00
2018-06-30T08:13:56.149Z,100865.00
2018-06-30T08:18:59.889Z,100861.00
2018-06-30T08:24:03.951Z,100861.00
2018-06-30T08:29:07.757Z,100857.00
2018-06-30T08:34:11.553Z,100860.00
2018-06-30T08:39:15.357Z,100849.00
2018-06-30T08:44:19.145Z,100856.00
2018-06-30T08:49:22.949Z,100855.00
2018-06-30T08:54:26.738Z,100848.00
2018-06-30T08:59:30.535Z,100855.00
2018-06-30T09:04:34.429Z,100858.00
2018-06-30T09:09:38.561Z,100859.00
2018-06-30T09:14:42.609Z,100854.00
2018-06-30T09:19:46.398Z,100854.00
2018-06-30T09:24:50.180Z,100850.00
2018-06-30T09:29:53.999Z,100849.00
2018-06-30T09:34:57.833Z,100845.00
2018-06-30T09:40:01.621Z,100842.00
2018-06-30T09:45:05.421Z,100845.00
2018-06-30T09:50:09.374Z,100837.00
2018-06-30T09:55:13.153Z,100827.00
2018-06-30T10:00:22.255Z,100818.00
2018-06-30T10:05:26.024Z,100806.00
2018-06-30T10:10:29.821Z,100801.00
2018-06-30T10:15:33.637Z,100798.00
2018-06-30T10:20:37.711Z,100797.00
2018-06-30T10:25:41.508Z,100791.00
2018-06-30T10:30:45.297Z,100782.00
2018-06-30T10:35:49.093Z,100774.00
2018-06-30T10:40:52.881Z,100770.00
2018-06-30T10:45:56.689Z,100762.00
2018-06-30T10:51:00.489Z,100762.00
2018-06-30T10:56:04.368Z,100760.00
2018-06-30T11:01:08.164Z,100763.00
2018-06-30T11:06:11.989Z,100759.00
2018-06-30T11:11:15.784Z,100754.00
2018-06-30T11:16:19.582Z,100754.00
2018-06-30T11:21:23.372Z,100746.00
2018-06-30T11:26:27.461Z,100739.00
2018-06-30T11:31:31.245Z,100740.00
2018-06-30T11:36:35.053Z,100746.00
2018-06-30T11:41:39.093Z,100743.00
2018-06-30T11:46:42.908Z,100731.00
2018-06-30T11:51:46.717Z,100724.00
2018-06-30T11:56:50.516Z,100718.00
2018-06-30T12:01:54.355Z,100713.00
2018-06-30T12:06:58.141Z,100714.00
2018-06-30T12:12:02.181Z,100708.00
2018-06-30T12:17:06.075Z,100708.00
2018-06-30T12:22:09.868Z,100697.00
2018-06-30T12:27:13.655Z,100693.00
2018-06-30T12:32:17.468Z,100682.00
2018-06-30T12:37:21.242Z,100679.00
2018-06-30T12:42:25.049Z,100685.00
2018-06-30T12:47:28.832Z,100686.00
2018-06-30T12:52:32.620Z,100680.00
2018-06-30T12:57:36.660Z,100676.00
2018-06-30T13:02:41.324Z,100677.00
2018-06-30T13:07:45.185Z,100672.00
2018-06-30T13:12:49.218Z,100665.00
2018-06-30T13:17:53.045Z,100668.00
2018-06-30T13:22:56.892Z,100660.00
2018-06-30T13:28:00.678Z,100659.00
2018-06-30T13:33:04.693Z,100661.00
2018-06-30T13:38:08.722Z,100652.00
2018-06-30T13:43:13.380Z,100659.00
2018-06-30T13:48:17.313Z,100657.00
2018-06-30T13:53:21.104Z,100648.00
2018-06-30T13:58:24.940Z,100644.00
2018-06-30T14:03:28.991Z,100639.00
2018-06-30T14:08:32.787Z,100653.00
2018-06-30T14:13:36.593Z,100654.00
2018-06-30T14:18:40.396Z,100642.00
2018-06-30T14:23:44.228Z,100637.00
2018-06-30T14:28:48.018Z,100636.00
2018-06-30T14:33:51.813Z,100628.00
2018-06-30T14:38:55.600Z,100630.00
2018-06-30T14:43:59.406Z,100619.00
2018-06-30T14:49:03.628Z,100629.00
2018-06-30T14:54:07.657Z,100622.00
2018-06-30T14:59:11.701Z,100623.00
2018-06-30T15:04:15.809Z,100618.00
2018-06-30T15:09:19.855Z,100622.00
2018-06-30T15:14:23.662Z,100623.00
2018-06-30T15:19:27.470Z,100622.00
2018-06-30T15:24:31.345Z,100620.00
2018-06-30T15:29:35.320Z,100616.00
2018-06-30T15:34:39.347Z,100616.00
2018-06-30T15:39:43.365Z,100624.00
2018-06-30T15:44:47.161Z,100620.00
2018-06-30T15:49:50.972Z,100625.00
2018-06-30T15:54:54.796Z,100617.00
2018-06-30T15:59:58.810Z,100626.00
2018-06-30T16:05:02.663Z,100631.00
2018-06-30T16:10:06.465Z,100630.00
2018-06-30T16:15:10.498Z,100630.00
2018-06-30T16:20:14.305Z,100622.00
2018-06-30T16:25:18.192Z,100621.00
2018-06-30T16:30:22.055Z,100626.00
2018-06-30T16:35:25.900Z,100611.00
2018-06-30T16:40:29.641Z,100610.00
2018-06-30T16:45:33.425Z,100610.00
2018-06-30T16:50:37.217Z,100617.00
2018-06-30T16:55:41.285Z,100617.00
2018-06-30T17:00:45.313Z,100620.00
2018-06-30T17:05:49.331Z,100623.00
2018-06-30T17:10:53.857Z,100625.00
2018-06-30T17:15:58.296Z,100630.00
2018-06-30T17:21:02.057Z,100628.00
2018-06-30T17:26:05.891Z,100629.00
2018-06-30T17:31:09.617Z,100627.00
2018-06-30T17:36:13.410Z,100633.00
2018-06-30T17:41:17.229Z,100632.00
2018-06-30T17:46:21.466Z,100642.00
2018-06-30T17:51:25.521Z,100636.00
2018-06-30T17:56:29.553Z,100647.00
2018-06-30T18:01:33.492Z,100643.00
2018-06-30T18:06:37.329Z,100645.00
2018-06-30T18:11:41.537Z,100645.00
2018-06-30T18:16:45.313Z,100654.00
2018-06-30T18:21:49.320Z,100659.00
2018-06-30T18:26:53.124Z,100666.00
2018-06-30T18:31:57.186Z,100669.00
2018-06-30T18:37:01.214Z,100674.00
2018-06-30T18:42:05.076Z,100673.00
2018-06-30T18:47:08.868Z,100683.00
2018-06-30T18:52:12.688Z,100687.00
2018-06-30T18:57:17.569Z,100684.00
2018-06-30T19:02:21.364Z,100695.00
2018-06-30T19:07:25.158Z,100691.00
2018-06-30T19:12:28.936Z,100690.00
2018-06-30T19:17:32.725Z,100701.00
2018-06-30T19:22:36.517Z,100700.00
2018-06-30T19:27:40.288Z,100711.00
2018-06-30T19:32:44.100Z,100717.00
2018-06-30T19:37:48.372Z,100735.00
2018-06-30T19:42:52.161Z,100727.00
2018-06-30T19:47:55.951Z,100734.00
2018-06-30T19:52:59.770Z,100736.00
2018-06-30T19:58:03.781Z,100744.00
2018-06-30T20:03:07.584Z,100749.00
2018-06-30T20:08:11.370Z,100758.00
2018-06-30T20:13:15.148Z,100760.00
2018-06-30T20:18:18.939Z,100769.00
2018-06-30T20:23:22.959Z,100777.00
2018-06-30T20:28:26.741Z,100777.00
2018-06-30T20:33:30.545Z,100780.00
2018-06-30T20:38:34.325Z,100792.00
2018-06-30T20:43:38.358Z,100793.00
2018-06-30T20:48:42.144Z,100808.00
2018-06-30T20:53:46.161Z,100813.00
2018-06-30T20:58:50.210Z,100815.00
2018-06-30T21:03:54.011Z,100820.00
2018-06-30T21:08:57.831Z,100828.00
2018-06-30T21:14:01.615Z,100837.00
2018-06-30T21:19:05.629Z,100840.00
2018-06-30T21:24:09.516Z,100845.00
2018-06-30T21:29:13.314Z,100841.00
2018-06-30T21:34:17.143Z,100847.00
2018-06-30T21:39:20.900Z,100852.00
2018-06-30T21:44:24.733Z,100851.00
2018-06-30T21:49:28.596Z,100858.00
2018-06-30T21:54:32.399Z,100859.00
2018-06-30T21:59:36.189Z,100862.00
2018-06-30T22:04:40.806Z,100863.00
2018-06-30T22:09:44.613Z,100867.00
2018-06-30T22:14:48.393Z,100869.00
2018-06-30T22:19:52.429Z,100873.00
2018-06-30T22:24:56.269Z,100875.00
2018-06-30T22:30:00.300Z,100875.00
2018-06-30T22:35:04.117Z,100873.00
2018-06-30T22:40:17.768Z,100873.00
2018-06-30T22:45:21.540Z,100867.00
2018-06-30T22:50:25.400Z,100878.00
2018-06-30T22:55:29.276Z,100880.00
2018-06-30T23:00:33.175Z,100872.00
2018-06-30T23:05:37.272Z,100882.00
2018-06-30T23:10:41.286Z,100877.00
2018-06-30T23:15:45.350Z,100884.00
2018-06-30T23:20:49.376Z,100882.00
2018-06-30T23:25:53.409Z,100880.00
2018-06-30T23:30:57.430Z,100889.00
2018-06-30T23:36:01.222Z,100882.00
2018-06-30T23:41:05.019Z,100882.00
2018-06-30T23:46:08.828Z,100879.00
2018-06-30T23:51:12.677Z,100881.00
2018-06-30T23:56:16.701Z,100888.00
